Little Creek, Delaware
Current Conditions -  °F | °C
As of 9:51 PM on Sunday 23 Nov 2014 (Local Time) from KDOV Reporting Station
Light Rain Light Rain  
Wind Chill: 54°   Ceiling: 7000
Heat Index: 54°   Visibility: 10mi
Dew Point: 54°   Wind: 10mph
Humidity: 100%   Direction: 120°ESE
Pressure: 29.98"   Gusts: NA
Location:  39.17°N, 75.45°W
Report Text: KDOV 240251Z AUTO 12009KT 10SM -RA FEW055 OVC070 12/12 A2998 RMK AO2 RAB0251
Loading
Personal Weather Stations






























Interactive Weather Map New forecast layout! Learn more

10-Day Weather Forecast

Advertisements
Track Severe Weather on mobile